sensor_id;sensor_type;location;lat;lon;timestamp;temperature;humidity
32296;DHT22;18781;51.550;5.418;2022-11-20T00:00:24;3.80;61.60
32296;DHT22;18781;51.550;5.418;2022-11-20T00:02:49;3.80;61.50
32296;DHT22;18781;51.550;5.418;2022-11-20T00:05:15;3.80;61.50
32296;DHT22;18781;51.550;5.418;2022-11-20T00:07:41;3.70;61.50
32296;DHT22;18781;51.550;5.418;2022-11-20T00:10:06;3.70;61.70
32296;DHT22;18781;51.550;5.418;2022-11-20T00:12:32;3.70;61.90
32296;DHT22;18781;51.550;5.418;2022-11-20T00:14:58;3.70;62.00
32296;DHT22;18781;51.550;5.418;2022-11-20T00:17:23;3.70;62.10
32296;DHT22;18781;51.550;5.418;2022-11-20T00:19:49;3.70;62.20
32296;DHT22;18781;51.550;5.418;2022-11-20T00:22:14;3.70;62.20
32296;DHT22;18781;51.550;5.418;2022-11-20T00:24:40;3.70;62.10
32296;DHT22;18781;51.550;5.418;2022-11-20T00:27:06;3.70;62.20
32296;DHT22;18781;51.550;5.418;2022-11-20T00:29:31;3.70;62.30
32296;DHT22;18781;51.550;5.418;2022-11-20T00:31:57;3.70;62.30
32296;DHT22;18781;51.550;5.418;2022-11-20T00:34:24;3.60;62.20
32296;DHT22;18781;51.550;5.418;2022-11-20T00:36:49;3.70;62.30
32296;DHT22;18781;51.550;5.418;2022-11-20T00:39:15;3.60;62.40
32296;DHT22;18781;51.550;5.418;2022-11-20T00:41:40;3.60;62.20
32296;DHT22;18781;51.550;5.418;2022-11-20T00:44:06;3.60;62.10
32296;DHT22;18781;51.550;5.418;2022-11-20T00:46:31;3.60;62.20
32296;DHT22;18781;51.550;5.418;2022-11-20T00:48:57;3.60;62.40
32296;DHT22;18781;51.550;5.418;2022-11-20T00:51:24;3.60;62.40
32296;DHT22;18781;51.550;5.418;2022-11-20T00:53:50;3.50;62.20
32296;DHT22;18781;51.550;5.418;2022-11-20T00:56:18;3.50;62.40
32296;DHT22;18781;51.550;5.418;2022-11-20T00:58:46;3.50;62.70
32296;DHT22;18781;51.550;5.418;2022-11-20T01:01:12;3.50;62.60
32296;DHT22;18781;51.550;5.418;2022-11-20T01:03:41;3.50;62.50
32296;DHT22;18781;51.550;5.418;2022-11-20T01:08:37;3.50;62.50
32296;DHT22;18781;51.550;5.418;2022-11-20T01:11:05;3.50;62.50
32296;DHT22;18781;51.550;5.418;2022-11-20T01:13:31;3.40;62.50
32296;DHT22;18781;51.550;5.418;2022-11-20T01:16:27;3.40;62.40
32296;DHT22;18781;51.550;5.418;2022-11-20T01:18:56;3.40;62.30
32296;DHT22;18781;51.550;5.418;2022-11-20T01:21:29;3.40;62.30
32296;DHT22;18781;51.550;5.418;2022-11-20T01:23:55;3.40;62.30
32296;DHT22;18781;51.550;5.418;2022-11-20T01:26:23;3.30;62.10
32296;DHT22;18781;51.550;5.418;2022-11-20T01:28:50;3.30;62.30
32296;DHT22;18781;51.550;5.418;2022-11-20T01:31:21;3.30;62.50
32296;DHT22;18781;51.550;5.418;2022-11-20T01:33:49;3.30;62.70
32296;DHT22;18781;51.550;5.418;2022-11-20T01:36:15;3.30;62.80
32296;DHT22;18781;51.550;5.418;2022-11-20T01:38:42;3.20;62.90
32296;DHT22;18781;51.550;5.418;2022-11-20T01:41:08;3.20;62.80
32296;DHT22;18781;51.550;5.418;2022-11-20T01:43:34;3.20;62.90
32296;DHT22;18781;51.550;5.418;2022-11-20T01:46:13;3.20;62.90
32296;DHT22;18781;51.550;5.418;2022-11-20T01:49:03;3.20;63.00
32296;DHT22;18781;51.550;5.418;2022-11-20T01:54:01;3.20;62.90
32296;DHT22;18781;51.550;5.418;2022-11-20T01:56:28;3.20;63.00
32296;DHT22;18781;51.550;5.418;2022-11-20T01:58:58;3.10;62.90
32296;DHT22;18781;51.550;5.418;2022-11-20T02:01:26;3.10;62.90
32296;DHT22;18781;51.550;5.418;2022-11-20T02:03:52;3.10;62.90
32296;DHT22;18781;51.550;5.418;2022-11-20T02:06:35;3.10;62.80
32296;DHT22;18781;51.550;5.418;2022-11-20T02:09:01;3.10;63.20
32296;DHT22;18781;51.550;5.418;2022-11-20T02:11:26;3.00;62.90
32296;DHT22;18781;51.550;5.418;2022-11-20T02:13:53;3.00;62.90
32296;DHT22;18781;51.550;5.418;2022-11-20T02:16:26;3.00;63.00
32296;DHT22;18781;51.550;5.418;2022-11-20T02:18:54;3.00;63.20
32296;DHT22;18781;51.550;5.418;2022-11-20T02:21:37;3.00;63.10
32296;DHT22;18781;51.550;5.418;2022-11-20T02:24:10;2.90;63.00
32296;DHT22;18781;51.550;5.418;2022-11-20T02:27:13;2.90;63.00
32296;DHT22;18781;51.550;5.418;2022-11-20T02:32:22;2.90;63.60
32296;DHT22;18781;51.550;5.418;2022-11-20T02:34:48;2.80;63.30
32296;DHT22;18781;51.550;5.418;2022-11-20T02:37:14;2.80;63.20
32296;DHT22;18781;51.550;5.418;2022-11-20T02:39:40;2.80;63.40
32296;DHT22;18781;51.550;5.418;2022-11-20T02:42:06;2.80;63.30
32296;DHT22;18781;51.550;5.418;2022-11-20T02:44:31;2.80;63.20
32296;DHT22;18781;51.550;5.418;2022-11-20T02:46:58;2.70;63.10
32296;DHT22;18781;51.550;5.418;2022-11-20T02:49:24;2.70;63.20
32296;DHT22;18781;51.550;5.418;2022-11-20T02:51:50;2.70;63.40
32296;DHT22;18781;51.550;5.418;2022-11-20T02:54:15;2.70;63.60
32296;DHT22;18781;51.550;5.418;2022-11-20T02:56:41;2.70;63.80
32296;DHT22;18781;51.550;5.418;2022-11-20T02:59:06;2.70;63.70
32296;DHT22;18781;51.550;5.418;2022-11-20T03:01:32;2.70;63.80
32296;DHT22;18781;51.550;5.418;2022-11-20T03:03:58;2.70;63.80
32296;DHT22;18781;51.550;5.418;2022-11-20T03:06:23;2.70;63.80
32296;DHT22;18781;51.550;5.418;2022-11-20T03:08:49;2.70;63.90
32296;DHT22;18781;51.550;5.418;2022-11-20T03:11:14;2.70;63.80
32296;DHT22;18781;51.550;5.418;2022-11-20T03:13:40;2.70;63.90
32296;DHT22;18781;51.550;5.418;2022-11-20T03:16:08;2.70;63.90
32296;DHT22;18781;51.550;5.418;2022-11-20T03:18:34;2.70;63.90
32296;DHT22;18781;51.550;5.418;2022-11-20T03:20:59;2.80;64.00
32296;DHT22;18781;51.550;5.418;2022-11-20T03:23:25;2.80;64.00
32296;DHT22;18781;51.550;5.418;2022-11-20T03:25:51;2.80;63.90
32296;DHT22;18781;51.550;5.418;2022-11-20T03:28:16;2.80;63.80
32296;DHT22;18781;51.550;5.418;2022-11-20T03:30:42;2.80;64.00
32296;DHT22;18781;51.550;5.418;2022-11-20T03:33:08;2.80;63.90
32296;DHT22;18781;51.550;5.418;2022-11-20T03:35:33;2.70;63.70
32296;DHT22;18781;51.550;5.418;2022-11-20T03:37:59;2.70;63.90
32296;DHT22;18781;51.550;5.418;2022-11-20T03:40:24;2.80;63.90
32296;DHT22;18781;51.550;5.418;2022-11-20T03:42:50;2.70;63.90
32296;DHT22;18781;51.550;5.418;2022-11-20T03:45:17;2.80;63.80
32296;DHT22;18781;51.550;5.418;2022-11-20T03:47:43;2.70;63.70
32296;DHT22;18781;51.550;5.418;2022-11-20T03:50:11;2.70;63.70
32296;DHT22;18781;51.550;5.418;2022-11-20T03:52:38;2.70;63.90
32296;DHT22;18781;51.550;5.418;2022-11-20T03:55:05;2.70;64.20
32296;DHT22;18781;51.550;5.418;2022-11-20T03:57:31;2.70;64.30
32296;DHT22;18781;51.550;5.418;2022-11-20T03:59:56;2.70;64.10
32296;DHT22;18781;51.550;5.418;2022-11-20T04:02:22;2.70;64.20
32296;DHT22;18781;51.550;5.418;2022-11-20T04:04:48;2.70;64.40
32296;DHT22;18781;51.550;5.418;2022-11-20T04:07:13;2.70;64.30
32296;DHT22;18781;51.550;5.418;2022-11-20T04:09:39;2.70;64.30
32296;DHT22;18781;51.550;5.418;2022-11-20T04:12:04;2.70;64.30
32296;DHT22;18781;51.550;5.418;2022-11-20T04:14:30;2.70;64.20
32296;DHT22;18781;51.550;5.418;2022-11-20T04:16:56;2.70;64.30
32296;DHT22;18781;51.550;5.418;2022-11-20T04:19:21;2.80;64.40
32296;DHT22;18781;51.550;5.418;2022-11-20T04:21:47;2.70;64.40
32296;DHT22;18781;51.550;5.418;2022-11-20T04:24:12;2.80;64.50
32296;DHT22;18781;51.550;5.418;2022-11-20T04:26:39;2.80;64.40
32296;DHT22;18781;51.550;5.418;2022-11-20T04:29:05;2.80;64.40
32296;DHT22;18781;51.550;5.418;2022-11-20T04:31:33;2.80;64.40
32296;DHT22;18781;51.550;5.418;2022-11-20T04:34:00;2.80;64.20
32296;DHT22;18781;51.550;5.418;2022-11-20T04:36:27;2.80;64.80
32296;DHT22;18781;51.550;5.418;2022-11-20T04:38:55;2.80;64.40
32296;DHT22;18781;51.550;5.418;2022-11-20T04:41:22;2.80;64.40
32296;DHT22;18781;51.550;5.418;2022-11-20T04:43:49;2.80;64.40
32296;DHT22;18781;51.550;5.418;2022-11-20T04:46:16;2.80;64.30
32296;DHT22;18781;51.550;5.418;2022-11-20T04:48:42;2.80;64.20
32296;DHT22;18781;51.550;5.418;2022-11-20T04:51:07;2.80;64.20
32296;DHT22;18781;51.550;5.418;2022-11-20T04:53:33;2.80;64.10
32296;DHT22;18781;51.550;5.418;2022-11-20T04:56:03;2.80;64.10
32296;DHT22;18781;51.550;5.418;2022-11-20T04:58:29;2.80;64.10
32296;DHT22;18781;51.550;5.418;2022-11-20T05:03:28;2.80;64.20
32296;DHT22;18781;51.550;5.418;2022-11-20T05:05:54;2.70;64.00
32296;DHT22;18781;51.550;5.418;2022-11-20T05:08:19;2.70;64.10
32296;DHT22;18781;51.550;5.418;2022-11-20T05:10:45;2.70;64.20
32296;DHT22;18781;51.550;5.418;2022-11-20T05:13:11;2.70;64.20
32296;DHT22;18781;51.550;5.418;2022-11-20T05:15:37;2.70;64.20
32296;DHT22;18781;51.550;5.418;2022-11-20T05:18:02;2.70;64.30
32296;DHT22;18781;51.550;5.418;2022-11-20T05:20:28;2.70;64.40
32296;DHT22;18781;51.550;5.418;2022-11-20T05:22:56;2.60;64.40
32296;DHT22;18781;51.550;5.418;2022-11-20T05:25:22;2.70;64.50
32296;DHT22;18781;51.550;5.418;2022-11-20T05:27:48;2.70;64.40
32296;DHT22;18781;51.550;5.418;2022-11-20T05:30:14;2.70;64.50
32296;DHT22;18781;51.550;5.418;2022-11-20T05:32:39;2.70;64.50
32296;DHT22;18781;51.550;5.418;2022-11-20T05:35:05;2.70;64.60
32296;DHT22;18781;51.550;5.418;2022-11-20T05:37:31;2.70;64.60
32296;DHT22;18781;51.550;5.418;2022-11-20T05:39:56;2.70;64.60
32296;DHT22;18781;51.550;5.418;2022-11-20T05:42:22;2.70;64.60
32296;DHT22;18781;51.550;5.418;2022-11-20T05:45:04;2.70;64.70
32296;DHT22;18781;51.550;5.418;2022-11-20T05:47:33;2.70;64.80
32296;DHT22;18781;51.550;5.418;2022-11-20T05:50:00;2.70;64.80
32296;DHT22;18781;51.550;5.418;2022-11-20T05:52:28;2.70;64.80
32296;DHT22;18781;51.550;5.418;2022-11-20T05:54:54;2.70;65.50
32296;DHT22;18781;51.550;5.418;2022-11-20T05:57:20;2.70;65.00
32296;DHT22;18781;51.550;5.418;2022-11-20T05:59:45;2.70;65.10
32296;DHT22;18781;51.550;5.418;2022-11-20T06:02:11;2.70;65.20
32296;DHT22;18781;51.550;5.418;2022-11-20T06:04:37;2.70;65.30
32296;DHT22;18781;51.550;5.418;2022-11-20T06:07:02;2.70;65.40
32296;DHT22;18781;51.550;5.418;2022-11-20T06:09:29;2.80;65.40
32296;DHT22;18781;51.550;5.418;2022-11-20T06:11:55;2.80;65.30
32296;DHT22;18781;51.550;5.418;2022-11-20T06:14:20;2.80;65.30
32296;DHT22;18781;51.550;5.418;2022-11-20T06:16:46;2.80;65.30
32296;DHT22;18781;51.550;5.418;2022-11-20T06:19:12;2.80;65.10
32296;DHT22;18781;51.550;5.418;2022-11-20T06:21:38;2.80;65.10
32296;DHT22;18781;51.550;5.418;2022-11-20T06:24:03;2.80;65.00
32296;DHT22;18781;51.550;5.418;2022-11-20T06:26:30;2.80;65.00
32296;DHT22;18781;51.550;5.418;2022-11-20T06:28:55;2.80;65.00
32296;DHT22;18781;51.550;5.418;2022-11-20T06:31:23;2.80;65.00
32296;DHT22;18781;51.550;5.418;2022-11-20T06:33:49;2.80;65.10
32296;DHT22;18781;51.550;5.418;2022-11-20T06:36:17;2.80;65.10
32296;DHT22;18781;51.550;5.418;2022-11-20T06:38:43;2.80;65.20
32296;DHT22;18781;51.550;5.418;2022-11-20T06:41:17;2.80;65.30
32296;DHT22;18781;51.550;5.418;2022-11-20T06:43:43;2.80;65.60
32296;DHT22;18781;51.550;5.418;2022-11-20T06:46:10;2.80;65.50
32296;DHT22;18781;51.550;5.418;2022-11-20T06:48:36;2.80;66.10
32296;DHT22;18781;51.550;5.418;2022-11-20T06:51:07;2.80;65.70
32296;DHT22;18781;51.550;5.418;2022-11-20T06:53:33;2.80;65.90
32296;DHT22;18781;51.550;5.418;2022-11-20T06:55:59;2.80;65.80
32296;DHT22;18781;51.550;5.418;2022-11-20T06:58:29;2.90;65.90
32296;DHT22;18781;51.550;5.418;2022-11-20T07:01:03;2.90;66.00
32296;DHT22;18781;51.550;5.418;2022-11-20T07:03:29;2.90;66.00
32296;DHT22;18781;51.550;5.418;2022-11-20T07:05:56;2.90;66.00
32296;DHT22;18781;51.550;5.418;2022-11-20T07:08:22;3.00;66.10
32296;DHT22;18781;51.550;5.418;2022-11-20T07:10:47;3.00;66.20
32296;DHT22;18781;51.550;5.418;2022-11-20T07:13:13;3.00;66.40
32296;DHT22;18781;51.550;5.418;2022-11-20T07:15:39;3.10;66.50
32296;DHT22;18781;51.550;5.418;2022-11-20T07:18:04;3.10;66.40
32296;DHT22;18781;51.550;5.418;2022-11-20T07:20:30;3.10;66.40
32296;DHT22;18781;51.550;5.418;2022-11-20T07:22:56;3.20;66.40
32296;DHT22;18781;51.550;5.418;2022-11-20T07:25:23;3.20;66.40
32296;DHT22;18781;51.550;5.418;2022-11-20T07:27:48;3.20;66.40
32296;DHT22;18781;51.550;5.418;2022-11-20T07:30:15;3.30;66.50
32296;DHT22;18781;51.550;5.418;2022-11-20T07:32:41;3.30;66.50
32296;DHT22;18781;51.550;5.418;2022-11-20T07:35:07;3.30;66.40
32296;DHT22;18781;51.550;5.418;2022-11-20T07:37:35;3.30;66.40
32296;DHT22;18781;51.550;5.418;2022-11-20T07:40:01;3.40;66.70
32296;DHT22;18781;51.550;5.418;2022-11-20T07:42:27;3.40;66.60
32296;DHT22;18781;51.550;5.418;2022-11-20T07:44:53;3.40;67.10
32296;DHT22;18781;51.550;5.418;2022-11-20T07:47:18;3.50;66.60
32296;DHT22;18781;51.550;5.418;2022-11-20T07:49:44;3.50;66.60
32296;DHT22;18781;51.550;5.418;2022-11-20T07:52:09;3.60;66.50
32296;DHT22;18781;51.550;5.418;2022-11-20T07:54:35;3.60;66.50
32296;DHT22;18781;51.550;5.418;2022-11-20T07:57:00;3.60;66.50
32296;DHT22;18781;51.550;5.418;2022-11-20T07:59:26;3.60;66.40
32296;DHT22;18781;51.550;5.418;2022-11-20T08:01:52;3.70;66.50
32296;DHT22;18781;51.550;5.418;2022-11-20T08:04:17;3.70;66.50
32296;DHT22;18781;51.550;5.418;2022-11-20T08:06:43;3.70;66.60
32296;DHT22;18781;51.550;5.418;2022-11-20T08:09:09;3.70;66.70
32296;DHT22;18781;51.550;5.418;2022-11-20T08:11:34;3.80;66.70
32296;DHT22;18781;51.550;5.418;2022-11-20T08:14:19;3.80;66.70
32296;DHT22;18781;51.550;5.418;2022-11-20T08:16:46;3.90;66.70
32296;DHT22;18781;51.550;5.418;2022-11-20T08:19:17;3.90;66.80
32296;DHT22;18781;51.550;5.418;2022-11-20T08:21:43;4.00;66.90
32296;DHT22;18781;51.550;5.418;2022-11-20T08:24:10;4.00;66.80
32296;DHT22;18781;51.550;5.418;2022-11-20T08:26:37;4.00;66.80
32296;DHT22;18781;51.550;5.418;2022-11-20T08:29:04;4.00;66.70
32296;DHT22;18781;51.550;5.418;2022-11-20T08:31:29;4.10;66.80
32296;DHT22;18781;51.550;5.418;2022-11-20T08:33:56;4.10;66.80
32296;DHT22;18781;51.550;5.418;2022-11-20T08:36:22;4.20;66.90
32296;DHT22;18781;51.550;5.418;2022-11-20T08:38:49;4.20;66.90
32296;DHT22;18781;51.550;5.418;2022-11-20T08:41:15;4.20;66.80
32296;DHT22;18781;51.550;5.418;2022-11-20T08:43:58;4.30;66.90
32296;DHT22;18781;51.550;5.418;2022-11-20T08:46:25;4.30;66.80
32296;DHT22;18781;51.550;5.418;2022-11-20T08:48:51;4.40;66.90
32296;DHT22;18781;51.550;5.418;2022-11-20T08:51:18;4.40;66.90
32296;DHT22;18781;51.550;5.418;2022-11-20T08:53:43;4.40;66.90
32296;DHT22;18781;51.550;5.418;2022-11-20T08:56:09;4.50;66.90
32296;DHT22;18781;51.550;5.418;2022-11-20T08:58:36;4.50;67.00
32296;DHT22;18781;51.550;5.418;2022-11-20T09:01:02;4.50;66.90
32296;DHT22;18781;51.550;5.418;2022-11-20T09:03:27;4.60;67.00
32296;DHT22;18781;51.550;5.418;2022-11-20T09:06:00;4.60;67.00
32296;DHT22;18781;51.550;5.418;2022-11-20T09:08:27;4.60;67.20
32296;DHT22;18781;51.550;5.418;2022-11-20T09:10:54;4.70;67.00
32296;DHT22;18781;51.550;5.418;2022-11-20T09:13:21;4.80;67.10
32296;DHT22;18781;51.550;5.418;2022-11-20T09:15:46;4.80;67.20
32296;DHT22;18781;51.550;5.418;2022-11-20T09:18:12;4.90;67.30
32296;DHT22;18781;51.550;5.418;2022-11-20T09:20:38;4.90;67.30
32296;DHT22;18781;51.550;5.418;2022-11-20T09:23:04;4.90;67.20
32296;DHT22;18781;51.550;5.418;2022-11-20T09:25:29;5.00;67.40
32296;DHT22;18781;51.550;5.418;2022-11-20T09:27:58;5.00;67.30
32296;DHT22;18781;51.550;5.418;2022-11-20T09:30:24;5.10;67.40
32296;DHT22;18781;51.550;5.418;2022-11-20T09:32:50;5.10;67.70
32296;DHT22;18781;51.550;5.418;2022-11-20T09:35:16;5.10;67.10
32296;DHT22;18781;51.550;5.418;2022-11-20T09:37:43;5.20;67.40
32296;DHT22;18781;51.550;5.418;2022-11-20T09:40:19;5.20;67.50
32296;DHT22;18781;51.550;5.418;2022-11-20T09:42:50;5.30;67.90
32296;DHT22;18781;51.550;5.418;2022-11-20T09:45:58;5.30;67.70
32296;DHT22;18781;51.550;5.418;2022-11-20T09:56:17;5.50;67.60
32296;DHT22;18781;51.550;5.418;2022-11-20T09:59:05;5.50;67.60
32296;DHT22;18781;51.550;5.418;2022-11-20T10:01:33;5.60;68.30
32296;DHT22;18781;51.550;5.418;2022-11-20T10:04:17;5.60;67.80
32296;DHT22;18781;51.550;5.418;2022-11-20T10:07:03;5.70;67.90
32296;DHT22;18781;51.550;5.418;2022-11-20T10:09:38;5.70;68.20
32296;DHT22;18781;51.550;5.418;2022-11-20T10:12:26;5.80;67.90
32296;DHT22;18781;51.550;5.418;2022-11-20T10:20:16;5.90;67.60
32296;DHT22;18781;51.550;5.418;2022-11-20T10:23:26;5.90;67.80
32296;DHT22;18781;51.550;5.418;2022-11-20T10:29:24;6.00;67.90
32296;DHT22;18781;51.550;5.418;2022-11-20T10:31:34;6.10;67.80
32296;DHT22;18781;51.550;5.418;2022-11-20T10:34:06;6.10;67.70
32296;DHT22;18781;51.550;5.418;2022-11-20T10:36:41;6.10;67.70
32296;DHT22;18781;51.550;5.418;2022-11-20T10:39:18;6.10;67.60
32296;DHT22;18781;51.550;5.418;2022-11-20T10:41:50;6.20;67.90
32296;DHT22;18781;51.550;5.418;2022-11-20T10:44:20;6.20;67.70
32296;DHT22;18781;51.550;5.418;2022-11-20T10:47:24;6.20;67.70
32296;DHT22;18781;51.550;5.418;2022-11-20T10:49:53;6.20;68.10
32296;DHT22;18781;51.550;5.418;2022-11-20T10:55:03;6.30;68.00
32296;DHT22;18781;51.550;5.418;2022-11-20T11:00:12;6.40;67.80
32296;DHT22;18781;51.550;5.418;2022-11-20T11:02:48;6.40;67.60
32296;DHT22;18781;51.550;5.418;2022-11-20T11:07:47;6.40;68.60
32296;DHT22;18781;51.550;5.418;2022-11-20T11:10:21;6.40;67.80
32296;DHT22;18781;51.550;5.418;2022-11-20T11:12:48;6.50;67.90
32296;DHT22;18781;51.550;5.418;2022-11-20T11:15:37;6.50;67.80
32296;DHT22;18781;51.550;5.418;2022-11-20T11:18:03;6.50;68.30
32296;DHT22;18781;51.550;5.418;2022-11-20T11:20:29;6.50;67.90
32296;DHT22;18781;51.550;5.418;2022-11-20T11:22:57;6.60;67.90
32296;DHT22;18781;51.550;5.418;2022-11-20T11:25:32;6.60;67.90
32296;DHT22;18781;51.550;5.418;2022-11-20T11:30:44;6.60;67.90
32296;DHT22;18781;51.550;5.418;2022-11-20T11:33:11;6.70;67.90
32296;DHT22;18781;51.550;5.418;2022-11-20T11:35:46;6.70;68.00
32296;DHT22;18781;51.550;5.418;2022-11-20T11:38:16;6.70;68.40
32296;DHT22;18781;51.550;5.418;2022-11-20T11:40:43;6.70;68.80
32296;DHT22;18781;51.550;5.418;2022-11-20T11:43:21;6.70;68.10
32296;DHT22;18781;51.550;5.418;2022-11-20T11:54:53;6.90;68.80
32296;DHT22;18781;51.550;5.418;2022-11-20T12:13:46;7.00;68.80
32296;DHT22;18781;51.550;5.418;2022-11-20T12:16:18;7.10;69.20
32296;DHT22;18781;51.550;5.418;2022-11-20T12:18:48;7.10;69.20
32296;DHT22;18781;51.550;5.418;2022-11-20T12:35:17;7.20;70.10
32296;DHT22;18781;51.550;5.418;2022-11-20T12:40:45;7.30;69.40
32296;DHT22;18781;51.550;5.418;2022-11-20T12:43:20;7.30;70.20
32296;DHT22;18781;51.550;5.418;2022-11-20T12:49:18;7.40;70.50
32296;DHT22;18781;51.550;5.418;2022-11-20T12:57:18;7.40;70.40
32296;DHT22;18781;51.550;5.418;2022-11-20T13:00:02;7.40;70.10
32296;DHT22;18781;51.550;5.418;2022-11-20T13:02:59;7.50;70.50
32296;DHT22;18781;51.550;5.418;2022-11-20T13:08:38;7.50;70.50
32296;DHT22;18781;51.550;5.418;2022-11-20T13:11:13;7.50;70.30
32296;DHT22;18781;51.550;5.418;2022-11-20T13:18:50;7.60;70.80
32296;DHT22;18781;51.550;5.418;2022-11-20T13:21:21;7.60;70.50
32296;DHT22;18781;51.550;5.418;2022-11-20T13:23:47;7.70;70.80
32296;DHT22;18781;51.550;5.418;2022-11-20T13:28:45;7.70;70.80
32296;DHT22;18781;51.550;5.418;2022-11-20T13:31:31;7.70;70.70
32296;DHT22;18781;51.550;5.418;2022-11-20T13:33:58;7.80;71.40
32296;DHT22;18781;51.550;5.418;2022-11-20T13:36:27;7.80;70.70
32296;DHT22;18781;51.550;5.418;2022-11-20T13:38:55;7.80;70.80
32296;DHT22;18781;51.550;5.418;2022-11-20T13:41:38;7.90;70.90
32296;DHT22;18781;51.550;5.418;2022-11-20T13:46:45;7.90;71.00
32296;DHT22;18781;51.550;5.418;2022-11-20T13:49:30;8.00;71.00
32296;DHT22;18781;51.550;5.418;2022-11-20T13:58:06;8.10;71.40
32296;DHT22;18781;51.550;5.418;2022-11-20T14:00:44;8.10;71.50
32296;DHT22;18781;51.550;5.418;2022-11-20T14:03:20;8.10;71.30
32296;DHT22;18781;51.550;5.418;2022-11-20T14:05:53;8.10;71.30
32296;DHT22;18781;51.550;5.418;2022-11-20T14:08:26;8.20;71.30
32296;DHT22;18781;51.550;5.418;2022-11-20T14:11:24;8.20;71.20
32296;DHT22;18781;51.550;5.418;2022-11-20T14:14:04;8.20;71.50
32296;DHT22;18781;51.550;5.418;2022-11-20T14:16:36;8.20;71.40
32296;DHT22;18781;51.550;5.418;2022-11-20T14:21:46;8.30;71.70
32296;DHT22;18781;51.550;5.418;2022-11-20T14:24:13;8.30;71.00
32296;DHT22;18781;51.550;5.418;2022-11-20T14:26:43;8.30;71.10
32296;DHT22;18781;51.550;5.418;2022-11-20T14:29:33;8.30;71.30
32296;DHT22;18781;51.550;5.418;2022-11-20T14:32:01;8.30;71.70
32296;DHT22;18781;51.550;5.418;2022-11-20T14:34:29;8.30;71.20
32296;DHT22;18781;51.550;5.418;2022-11-20T14:37:00;8.30;71.20
32296;DHT22;18781;51.550;5.418;2022-11-20T14:39:34;8.30;71.30
32296;DHT22;18781;51.550;5.418;2022-11-20T14:42:03;8.30;71.30
32296;DHT22;18781;51.550;5.418;2022-11-20T14:44:33;8.30;71.30
32296;DHT22;18781;51.550;5.418;2022-11-20T14:47:03;8.30;71.40
32296;DHT22;18781;51.550;5.418;2022-11-20T14:49:30;8.30;71.50
32296;DHT22;18781;51.550;5.418;2022-11-20T14:52:01;8.40;71.30
32296;DHT22;18781;51.550;5.418;2022-11-20T14:54:27;8.30;71.50
32296;DHT22;18781;51.550;5.418;2022-11-20T14:56:58;8.40;71.40
32296;DHT22;18781;51.550;5.418;2022-11-20T14:59:26;8.40;71.80
32296;DHT22;18781;51.550;5.418;2022-11-20T15:04:24;8.30;72.00
32296;DHT22;18781;51.550;5.418;2022-11-20T15:06:52;8.40;71.80
32296;DHT22;18781;51.550;5.418;2022-11-20T15:09:18;8.30;71.90
32296;DHT22;18781;51.550;5.418;2022-11-20T15:14:18;8.40;72.60
32296;DHT22;18781;51.550;5.418;2022-11-20T15:16:44;8.40;72.20
32296;DHT22;18781;51.550;5.418;2022-11-20T15:19:17;8.40;72.20
32296;DHT22;18781;51.550;5.418;2022-11-20T15:21:44;8.40;72.50
32296;DHT22;18781;51.550;5.418;2022-11-20T15:24:10;8.40;72.30
32296;DHT22;18781;51.550;5.418;2022-11-20T15:26:37;8.40;72.30
32296;DHT22;18781;51.550;5.418;2022-11-20T15:29:04;8.40;72.50
32296;DHT22;18781;51.550;5.418;2022-11-20T15:31:30;8.40;72.40
32296;DHT22;18781;51.550;5.418;2022-11-20T15:33:55;8.40;72.40
32296;DHT22;18781;51.550;5.418;2022-11-20T15:36:21;8.40;72.50
32296;DHT22;18781;51.550;5.418;2022-11-20T15:38:46;8.40;72.50
32296;DHT22;18781;51.550;5.418;2022-11-20T15:41:12;8.40;72.60
32296;DHT22;18781;51.550;5.418;2022-11-20T15:43:38;8.40;72.70
32296;DHT22;18781;51.550;5.418;2022-11-20T15:46:08;8.40;72.60
32296;DHT22;18781;51.550;5.418;2022-11-20T15:48:38;8.40;72.80
32296;DHT22;18781;51.550;5.418;2022-11-20T15:53:42;8.50;73.50
32296;DHT22;18781;51.550;5.418;2022-11-20T15:56:14;8.50;72.80
32296;DHT22;18781;51.550;5.418;2022-11-20T15:58:40;8.50;73.40
32296;DHT22;18781;51.550;5.418;2022-11-20T16:01:11;8.50;73.10
32296;DHT22;18781;51.550;5.418;2022-11-20T16:03:37;8.50;73.40
32296;DHT22;18781;51.550;5.418;2022-11-20T16:06:02;8.50;73.10
32296;DHT22;18781;51.550;5.418;2022-11-20T16:08:28;8.50;73.20
32296;DHT22;18781;51.550;5.418;2022-11-20T16:10:53;8.50;73.20
32296;DHT22;18781;51.550;5.418;2022-11-20T16:13:19;8.50;73.40
32296;DHT22;18781;51.550;5.418;2022-11-20T16:16:11;8.50;73.40
32296;DHT22;18781;51.550;5.418;2022-11-20T16:18:39;8.60;73.80
32296;DHT22;18781;51.550;5.418;2022-11-20T16:21:10;8.50;73.50
32296;DHT22;18781;51.550;5.418;2022-11-20T16:23:35;8.60;73.50
32296;DHT22;18781;51.550;5.418;2022-11-20T16:26:12;8.60;73.60
32296;DHT22;18781;51.550;5.418;2022-11-20T16:28:38;8.60;74.20
32296;DHT22;18781;51.550;5.418;2022-11-20T16:31:11;8.60;73.80
32296;DHT22;18781;51.550;5.418;2022-11-20T16:33:37;8.70;74.20
32296;DHT22;18781;51.550;5.418;2022-11-20T16:36:11;8.70;73.90
32296;DHT22;18781;51.550;5.418;2022-11-20T16:38:37;8.70;74.30
32296;DHT22;18781;51.550;5.418;2022-11-20T16:41:03;8.70;74.10
32296;DHT22;18781;51.550;5.418;2022-11-20T16:43:29;8.70;74.20
32296;DHT22;18781;51.550;5.418;2022-11-20T16:45:55;8.80;74.20
32296;DHT22;18781;51.550;5.418;2022-11-20T16:48:20;8.80;74.10
32296;DHT22;18781;51.550;5.418;2022-11-20T16:50:51;8.80;74.10
32296;DHT22;18781;51.550;5.418;2022-11-20T16:53:18;8.80;74.50
32296;DHT22;18781;51.550;5.418;2022-11-20T16:55:44;8.80;74.40
32296;DHT22;18781;51.550;5.418;2022-11-20T16:58:10;8.80;74.50
32296;DHT22;18781;51.550;5.418;2022-11-20T17:00:37;8.90;74.60
32296;DHT22;18781;51.550;5.418;2022-11-20T17:03:04;8.90;74.80
32296;DHT22;18781;51.550;5.418;2022-11-20T17:05:30;8.90;74.70
32296;DHT22;18781;51.550;5.418;2022-11-20T17:07:56;8.90;74.70
32296;DHT22;18781;51.550;5.418;2022-11-20T17:10:22;9.00;74.80
32296;DHT22;18781;51.550;5.418;2022-11-20T17:12:47;9.00;74.80
32296;DHT22;18781;51.550;5.418;2022-11-20T17:15:13;9.00;75.00
32296;DHT22;18781;51.550;5.418;2022-11-20T17:17:38;9.10;75.10
32296;DHT22;18781;51.550;5.418;2022-11-20T17:20:04;9.10;75.10
32296;DHT22;18781;51.550;5.418;2022-11-20T17:22:30;9.10;75.10
32296;DHT22;18781;51.550;5.418;2022-11-20T17:24:56;9.10;75.30
32296;DHT22;18781;51.550;5.418;2022-11-20T17:27:22;9.20;75.30
32296;DHT22;18781;51.550;5.418;2022-11-20T17:29:47;9.20;75.40
32296;DHT22;18781;51.550;5.418;2022-11-20T17:32:13;9.30;75.60
32296;DHT22;18781;51.550;5.418;2022-11-20T17:34:39;9.30;75.90
32296;DHT22;18781;51.550;5.418;2022-11-20T17:37:04;9.40;75.90
32296;DHT22;18781;51.550;5.418;2022-11-20T17:39:30;9.40;75.90
32296;DHT22;18781;51.550;5.418;2022-11-20T17:41:56;9.40;76.00
32296;DHT22;18781;51.550;5.418;2022-11-20T17:44:39;9.50;76.20
32296;DHT22;18781;51.550;5.418;2022-11-20T17:47:07;9.60;76.40
32296;DHT22;18781;51.550;5.418;2022-11-20T17:49:32;9.60;76.40
32296;DHT22;18781;51.550;5.418;2022-11-20T17:51:58;9.70;76.50